sensor_id;sensor_type;location;lat;lon;timestamp;pressure;altitude;pressure_sealevel;temperature;humidity
21956;BME280;11142;49.930;8.606;2023-05-10T00:01:22;99241.66;;;13.68;100.00
21956;BME280;11142;49.930;8.606;2023-05-10T00:03:50;99243.59;;;13.66;100.00
21956;BME280;11142;49.930;8.606;2023-05-10T00:06:20;99241.41;;;13.61;100.00
21956;BME280;11142;49.930;8.606;2023-05-10T00:08:48;99247.44;;;13.71;100.00
21956;BME280;11142;49.930;8.606;2023-05-10T00:11:15;99242.63;;;13.86;100.00
21956;BME280;11142;49.930;8.606;2023-05-10T00:13:45;99256.66;;;13.75;100.00
21956;BME280;11142;49.930;8.606;2023-05-10T00:16:13;99258.97;;;13.78;100.00
21956;BME280;11142;49.930;8.606;2023-05-10T00:18:41;99255.94;;;13.73;100.00
21956;BME280;11142;49.930;8.606;2023-05-10T00:21:09;99245.94;;;13.69;100.00
21956;BME280;11142;49.930;8.606;2023-05-10T00:23:38;99250.88;;;13.62;100.00
21956;BME280;11142;49.930;8.606;2023-05-10T00:26:06;99253.19;;;13.65;100.00
21956;BME280;11142;49.930;8.606;2023-05-10T00:28:36;99254.16;;;13.74;100.00
21956;BME280;11142;49.930;8.606;2023-05-10T00:31:04;99256.75;;;13.93;100.00
21956;BME280;11142;49.930;8.606;2023-05-10T00:33:32;99262.53;;;13.87;100.00
21956;BME280;11142;49.930;8.606;2023-05-10T00:36:00;99265.81;;;13.79;100.00
21956;BME280;11142;49.930;8.606;2023-05-10T00:38:28;99264.19;;;13.88;100.00
21956;BME280;11142;49.930;8.606;2023-05-10T00:40:57;99268.03;;;13.84;100.00
21956;BME280;11142;49.930;8.606;2023-05-10T00:43:29;99272.00;;;13.88;100.00
21956;BME280;11142;49.930;8.606;2023-05-10T00:45:57;99275.16;;;13.82;100.00
21956;BME280;11142;49.930;8.606;2023-05-10T00:48:25;99280.09;;;13.75;100.00
21956;BME280;11142;49.930;8.606;2023-05-10T00:50:53;99281.34;;;13.81;100.00
21956;BME280;11142;49.930;8.606;2023-05-10T00:53:21;99277.34;;;13.77;100.00
21956;BME280;11142;49.930;8.606;2023-05-10T00:55:49;99284.34;;;13.76;100.00
21956;BME280;11142;49.930;8.606;2023-05-10T00:58:20;99287.50;;;13.80;100.00
21956;BME280;11142;49.930;8.606;2023-05-10T01:00:50;99275.16;;;13.82;100.00
21956;BME280;11142;49.930;8.606;2023-05-10T01:03:19;99278.72;;;13.81;100.00
21956;BME280;11142;49.930;8.606;2023-05-10T01:05:47;99279.13;;;13.96;100.00
21956;BME280;11142;49.930;8.606;2023-05-10T01:08:15;99277.91;;;14.00;100.00
21956;BME280;11142;49.930;8.606;2023-05-10T01:10:43;99277.31;;;14.15;100.00
21956;BME280;11142;49.930;8.606;2023-05-10T01:13:12;99274.59;;;14.17;100.00
21956;BME280;11142;49.930;8.606;2023-05-10T01:15:42;99270.59;;;14.22;100.00
21956;BME280;11142;49.930;8.606;2023-05-10T01:18:10;99279.38;;;14.41;100.00
21956;BME280;11142;49.930;8.606;2023-05-10T01:20:40;99274.72;;;14.34;100.00
21956;BME280;11142;49.930;8.606;2023-05-10T01:23:14;99289.81;;;14.21;100.00
21956;BME280;11142;49.930;8.606;2023-05-10T01:25:54;99288.59;;;14.16;100.00
21956;BME280;11142;49.930;8.606;2023-05-10T01:28:39;99293.13;;;14.14;100.00
21956;BME280;11142;49.930;8.606;2023-05-10T01:31:20;99289.13;;;14.29;100.00
21956;BME280;11142;49.930;8.606;2023-05-10T01:33:54;99299.41;;;14.21;100.00
21956;BME280;11142;49.930;8.606;2023-05-10T01:36:23;99300.41;;;14.29;100.00
21956;BME280;11142;49.930;8.606;2023-05-10T01:38:58;99303.59;;;14.33;100.00
21956;BME280;11142;49.930;8.606;2023-05-10T01:41:31;99310.84;;;14.39;100.00
21956;BME280;11142;49.930;8.606;2023-05-10T01:44:05;99308.81;;;14.33;100.00
21956;BME280;11142;49.930;8.606;2023-05-10T01:46:36;99311.66;;;14.30;100.00
21956;BME280;11142;49.930;8.606;2023-05-10T01:49:07;99318.81;;;14.38;100.00
21956;BME280;11142;49.930;8.606;2023-05-10T01:51:36;99319.59;;;14.57;100.00
21956;BME280;11142;49.930;8.606;2023-05-10T01:54:07;99318.22;;;14.53;100.00
21956;BME280;11142;49.930;8.606;2023-05-10T01:56:37;99316.69;;;14.60;100.00
21956;BME280;11142;49.930;8.606;2023-05-10T01:59:06;99327.72;;;14.54;100.00
21956;BME280;11142;49.930;8.606;2023-05-10T02:01:36;99328.81;;;14.52;100.00
21956;BME280;11142;49.930;8.606;2023-05-10T02:04:04;99324.97;;;14.46;100.00
21956;BME280;11142;49.930;8.606;2023-05-10T02:06:35;99324.81;;;14.57;100.00
21956;BME280;11142;49.930;8.606;2023-05-10T02:09:06;99335.38;;;14.56;100.00
21956;BME280;11142;49.930;8.606;2023-05-10T02:11:36;99333.75;;;14.55;100.00
21956;BME280;11142;49.930;8.606;2023-05-10T02:14:05;99338.28;;;14.53;100.00
21956;BME280;11142;49.930;8.606;2023-05-10T02:16:33;99336.22;;;14.56;100.00
21956;BME280;11142;49.930;8.606;2023-05-10T02:19:02;99345.47;;;14.41;100.00
21956;BME280;11142;49.930;8.606;2023-05-10T02:21:30;99338.44;;;14.32;100.00
21956;BME280;11142;49.930;8.606;2023-05-10T02:24:00;99345.44;;;14.31;100.00
21956;BME280;11142;49.930;8.606;2023-05-10T02:26:30;99347.78;;;14.34;100.00
21956;BME280;11142;49.930;8.606;2023-05-10T02:28:59;99337.91;;;14.38;100.00
21956;BME280;11142;49.930;8.606;2023-05-10T02:31:29;99343.41;;;14.35;100.00
21956;BME280;11142;49.930;8.606;2023-05-10T02:33:58;99343.41;;;14.45;100.00
21956;BME280;11142;49.930;8.606;2023-05-10T02:36:27;99350.41;;;14.34;100.00
21956;BME280;11142;49.930;8.606;2023-05-10T02:38:56;99350.81;;;14.20;100.00
21956;BME280;11142;49.930;8.606;2023-05-10T02:41:25;99342.16;;;14.10;100.00
21956;BME280;11142;49.930;8.606;2023-05-10T02:43:56;99346.28;;;14.13;100.00
21956;BME280;11142;49.930;8.606;2023-05-10T02:46:24;99342.72;;;14.14;100.00
21956;BME280;11142;49.930;8.606;2023-05-10T02:48:52;99341.44;;;14.18;100.00
21956;BME280;11142;49.930;8.606;2023-05-10T02:51:20;99338.28;;;14.14;100.00
21956;BME280;11142;49.930;8.606;2023-05-10T02:53:52;99342.72;;;14.04;100.00
21956;BME280;11142;49.930;8.606;2023-05-10T02:56:23;99333.91;;;13.96;100.00
21956;BME280;11142;49.930;8.606;2023-05-10T02:58:53;99338.56;;;13.92;100.00
21956;BME280;11142;49.930;8.606;2023-05-10T03:01:22;99330.63;;;14.13;100.00
21956;BME280;11142;49.930;8.606;2023-05-10T03:03:50;99338.56;;;14.21;100.00
21956;BME280;11142;49.930;8.606;2023-05-10T03:06:18;99341.47;;;14.08;100.00
21956;BME280;11142;49.930;8.606;2023-05-10T03:08:46;99345.59;;;14.11;100.00
21956;BME280;11142;49.930;8.606;2023-05-10T03:11:23;99347.50;;;14.28;100.00
21956;BME280;11142;49.930;8.606;2023-05-10T03:14:00;99347.38;;;14.20;100.00
21956;BME280;11142;49.930;8.606;2023-05-10T03:16:34;99349.28;;;14.27;100.00
21956;BME280;11142;49.930;8.606;2023-05-10T03:19:06;99353.94;;;14.24;100.00
21956;BME280;11142;49.930;8.606;2023-05-10T03:21:37;99350.53;;;14.14;100.00
21956;BME280;11142;49.930;8.606;2023-05-10T03:24:08;99353.81;;;14.06;100.00
21956;BME280;11142;49.930;8.606;2023-05-10T03:26:39;99352.88;;;14.07;100.00
21956;BME280;11142;49.930;8.606;2023-05-10T03:29:14;99356.84;;;14.21;100.00
21956;BME280;11142;49.930;8.606;2023-05-10T03:31:42;99359.59;;;14.29;100.00
21956;BME280;11142;49.930;8.606;2023-05-10T03:34:10;99363.72;;;14.41;100.00
21956;BME280;11142;49.930;8.606;2023-05-10T03:36:38;99368.56;;;14.36;100.00
21956;BME280;11142;49.930;8.606;2023-05-10T03:39:06;99366.72;;;14.46;100.00
21956;BME280;11142;49.930;8.606;2023-05-10T03:41:36;99369.50;;;14.45;100.00
21956;BME280;11142;49.930;8.606;2023-05-10T03:44:03;99376.47;;;14.63;100.00
21956;BME280;11142;49.930;8.606;2023-05-10T03:46:32;99368.13;;;14.41;100.00
21956;BME280;11142;49.930;8.606;2023-05-10T03:49:01;99376.66;;;14.33;100.00
21956;BME280;11142;49.930;8.606;2023-05-10T03:51:29;99370.72;;;14.21;100.00
21956;BME280;11142;49.930;8.606;2023-05-10T03:53:57;99366.59;;;14.09;100.00
21956;BME280;11142;49.930;8.606;2023-05-10T03:56:25;99363.31;;;14.07;100.00
21956;BME280;11142;49.930;8.606;2023-05-10T03:58:53;99361.09;;;14.03;100.00
21956;BME280;11142;49.930;8.606;2023-05-10T04:01:21;99353.16;;;14.04;100.00
21956;BME280;11142;49.930;8.606;2023-05-10T04:03:51;99354.66;;;14.07;100.00
21956;BME280;11142;49.930;8.606;2023-05-10T04:06:19;99357.66;;;14.21;100.00
21956;BME280;11142;49.930;8.606;2023-05-10T04:08:47;99358.88;;;14.27;100.00
21956;BME280;11142;49.930;8.606;2023-05-10T04:11:15;99355.88;;;14.12;100.00
21956;BME280;11142;49.930;8.606;2023-05-10T04:13:43;99364.94;;;14.18;100.00
21956;BME280;11142;49.930;8.606;2023-05-10T04:16:11;99363.88;;;14.30;100.00
21956;BME280;11142;49.930;8.606;2023-05-10T04:18:39;99366.22;;;14.43;100.00
21956;BME280;11142;49.930;8.606;2023-05-10T04:21:12;99369.34;;;14.46;100.00
21956;BME280;11142;49.930;8.606;2023-05-10T04:23:40;99372.09;;;14.64;100.00
21956;BME280;11142;49.930;8.606;2023-05-10T04:26:08;99384.16;;;14.74;100.00
21956;BME280;11142;49.930;8.606;2023-05-10T04:28:36;99380.44;;;14.86;100.00
21956;BME280;11142;49.930;8.606;2023-05-10T04:31:04;99383.00;;;14.96;100.00
21956;BME280;11142;49.930;8.606;2023-05-10T04:33:32;99387.72;;;14.83;100.00
21956;BME280;11142;49.930;8.606;2023-05-10T04:36:02;99396.13;;;14.67;100.00
21956;BME280;11142;49.930;8.606;2023-05-10T04:38:32;99391.44;;;14.80;100.00
21956;BME280;11142;49.930;8.606;2023-05-10T04:41:03;99396.78;;;14.88;100.00
21956;BME280;11142;49.930;8.606;2023-05-10T04:43:31;99401.59;;;14.93;100.00
21956;BME280;11142;49.930;8.606;2023-05-10T04:45:59;99405.97;;;14.93;100.00
21956;BME280;11142;49.930;8.606;2023-05-10T04:48:29;99409.56;;;14.92;100.00
21956;BME280;11142;49.930;8.606;2023-05-10T04:50:57;99409.13;;;14.96;100.00
21956;BME280;11142;49.930;8.606;2023-05-10T04:53:25;99413.91;;;15.01;100.00
21956;BME280;11142;49.930;8.606;2023-05-10T04:55:55;99415.56;;;15.02;100.00
21956;BME280;11142;49.930;8.606;2023-05-10T04:58:22;99420.63;;;15.13;100.00
21956;BME280;11142;49.930;8.606;2023-05-10T05:00:51;99427.59;;;15.31;100.00
21956;BME280;11142;49.930;8.606;2023-05-10T05:03:19;99426.84;;;15.49;100.00
21956;BME280;11142;49.930;8.606;2023-05-10T05:05:47;99426.03;;;15.48;100.00
21956;BME280;11142;49.930;8.606;2023-05-10T05:08:15;99433.84;;;15.58;100.00
21956;BME280;11142;49.930;8.606;2023-05-10T05:10:43;99441.44;;;15.51;100.00
21956;BME280;11142;49.930;8.606;2023-05-10T05:13:13;99448.91;;;15.36;100.00
21956;BME280;11142;49.930;8.606;2023-05-10T05:15:41;99448.84;;;15.46;100.00
21956;BME280;11142;49.930;8.606;2023-05-10T05:18:09;99454.50;;;15.41;100.00
21956;BME280;11142;49.930;8.606;2023-05-10T05:20:37;99454.13;;;15.36;100.00
21956;BME280;11142;49.930;8.606;2023-05-10T05:23:05;99450.09;;;15.52;100.00
21956;BME280;11142;49.930;8.606;2023-05-10T05:25:33;99455.25;;;15.34;100.00
21956;BME280;11142;49.930;8.606;2023-05-10T05:28:02;99455.94;;;15.26;100.00
21956;BME280;11142;49.930;8.606;2023-05-10T05:30:31;99456.31;;;15.51;100.00
21956;BME280;11142;49.930;8.606;2023-05-10T05:32:59;99462.50;;;15.50;100.00
21956;BME280;11142;49.930;8.606;2023-05-10T05:35:27;99459.59;;;15.43;100.00
21956;BME280;11142;49.930;8.606;2023-05-10T05:37:55;99461.81;;;15.38;100.00
21956;BME280;11142;49.930;8.606;2023-05-10T05:40:22;99462.00;;;15.27;100.00
21956;BME280;11142;49.930;8.606;2023-05-10T05:42:50;99473.16;;;15.19;100.00
21956;BME280;11142;49.930;8.606;2023-05-10T05:45:18;99470.66;;;15.37;100.00
21956;BME280;11142;49.930;8.606;2023-05-10T05:47:48;99469.81;;;15.36;100.00
21956;BME280;11142;49.930;8.606;2023-05-10T05:50:17;99472.03;;;15.31;100.00
21956;BME280;11142;49.930;8.606;2023-05-10T05:52:45;99474.44;;;15.62;100.00
21956;BME280;11142;49.930;8.606;2023-05-10T05:55:12;99476.28;;;15.79;100.00
21956;BME280;11142;49.930;8.606;2023-05-10T05:57:42;99485.78;;;16.07;100.00
21956;BME280;11142;49.930;8.606;2023-05-10T06:00:11;99491.34;;;16.39;100.00
21956;BME280;11142;49.930;8.606;2023-05-10T06:02:40;99495.94;;;16.73;100.00
21956;BME280;11142;49.930;8.606;2023-05-10T06:05:10;99504.38;;;17.02;100.00
21956;BME280;11142;49.930;8.606;2023-05-10T06:07:42;99513.75;;;16.69;100.00
21956;BME280;11142;49.930;8.606;2023-05-10T06:10:10;99519.38;;;16.92;100.00
21956;BME280;11142;49.930;8.606;2023-05-10T06:12:38;99518.50;;;16.83;100.00
21956;BME280;11142;49.930;8.606;2023-05-10T06:15:08;99516.78;;;16.74;100.00
21956;BME280;11142;49.930;8.606;2023-05-10T06:17:37;99521.25;;;16.64;100.00
21956;BME280;11142;49.930;8.606;2023-05-10T06:20:06;99528.97;;;16.66;100.00
21956;BME280;11142;49.930;8.606;2023-05-10T06:22:37;99532.78;;;16.71;100.00
21956;BME280;11142;49.930;8.606;2023-05-10T06:25:05;99534.88;;;16.68;100.00
21956;BME280;11142;49.930;8.606;2023-05-10T06:27:36;99538.28;;;17.04;100.00
21956;BME280;11142;49.930;8.606;2023-05-10T06:30:07;99544.00;;;17.42;100.00
21956;BME280;11142;49.930;8.606;2023-05-10T06:32:39;99554.41;;;17.52;100.00
21956;BME280;11142;49.930;8.606;2023-05-10T06:35:07;99556.38;;;17.50;100.00
21956;BME280;11142;49.930;8.606;2023-05-10T06:37:38;99557.69;;;17.54;100.00
21956;BME280;11142;49.930;8.606;2023-05-10T06:40:06;99559.22;;;17.57;100.00
21956;BME280;11142;49.930;8.606;2023-05-10T06:42:37;99564.47;;;17.57;100.00
21956;BME280;11142;49.930;8.606;2023-05-10T06:45:08;99558.88;;;17.34;100.00
21956;BME280;11142;49.930;8.606;2023-05-10T06:47:37;99559.59;;;17.44;100.00
21956;BME280;11142;49.930;8.606;2023-05-10T06:50:06;99562.00;;;17.37;100.00
21956;BME280;11142;49.930;8.606;2023-05-10T06:52:34;99567.09;;;17.57;100.00
21956;BME280;11142;49.930;8.606;2023-05-10T06:55:15;99568.41;;;17.86;100.00
21956;BME280;11142;49.930;8.606;2023-05-10T06:57:43;99565.91;;;18.11;100.00
21956;BME280;11142;49.930;8.606;2023-05-10T07:00:12;99575.16;;;18.23;100.00
21956;BME280;11142;49.930;8.606;2023-05-10T07:02:41;99580.88;;;17.84;100.00
21956;BME280;11142;49.930;8.606;2023-05-10T07:05:10;99583.41;;;18.02;100.00
21956;BME280;11142;49.930;8.606;2023-05-10T07:07:38;99576.91;;;18.14;100.00
21956;BME280;11142;49.930;8.606;2023-05-10T07:10:06;99583.03;;;18.31;100.00
21956;BME280;11142;49.930;8.606;2023-05-10T07:12:36;99580.53;;;18.55;100.00
21956;BME280;11142;49.930;8.606;2023-05-10T07:15:04;99584.25;;;18.44;100.00
21956;BME280;11142;49.930;8.606;2023-05-10T07:17:32;99585.84;;;18.29;100.00
21956;BME280;11142;49.930;8.606;2023-05-10T07:20:00;99585.66;;;18.31;100.00
21956;BME280;11142;49.930;8.606;2023-05-10T07:22:29;99593.69;;;18.55;100.00
21956;BME280;11142;49.930;8.606;2023-05-10T07:24:57;99594.06;;;18.76;100.00
21956;BME280;11142;49.930;8.606;2023-05-10T07:27:25;99596.03;;;18.90;100.00
21956;BME280;11142;49.930;8.606;2023-05-10T07:29:54;99593.84;;;18.53;100.00
21956;BME280;11142;49.930;8.606;2023-05-10T07:32:23;99595.75;;;19.01;100.00
21956;BME280;11142;49.930;8.606;2023-05-10T07:34:50;99601.28;;;18.90;100.00
21956;BME280;11142;49.930;8.606;2023-05-10T07:37:19;99600.66;;;19.13;100.00
21956;BME280;11142;49.930;8.606;2023-05-10T07:39:46;99604.47;;;19.50;100.00
21956;BME280;11142;49.930;8.606;2023-05-10T07:42:14;99607.16;;;20.13;100.00
21956;BME280;11142;49.930;8.606;2023-05-10T07:44:42;99618.88;;;19.95;100.00
21956;BME280;11142;49.930;8.606;2023-05-10T07:47:11;99612.53;;;19.65;100.00
21956;BME280;11142;49.930;8.606;2023-05-10T07:49:39;99613.19;;;19.75;100.00
21956;BME280;11142;49.930;8.606;2023-05-10T07:52:07;99619.72;;;19.95;100.00
21956;BME280;11142;49.930;8.606;2023-05-10T07:54:35;99611.94;;;20.57;100.00
21956;BME280;11142;49.930;8.606;2023-05-10T07:57:03;99609.59;;;20.93;100.00
21956;BME280;11142;49.930;8.606;2023-05-10T07:59:31;99613.28;;;19.98;100.00
21956;BME280;11142;49.930;8.606;2023-05-10T08:01:59;99612.84;;;19.70;100.00
21956;BME280;11142;49.930;8.606;2023-05-10T08:04:28;99615.03;;;19.42;100.00
21956;BME280;11142;49.930;8.606;2023-05-10T08:06:56;99629.81;;;19.59;100.00
21956;BME280;11142;49.930;8.606;2023-05-10T08:09:24;99619.44;;;19.34;100.00
21956;BME280;11142;49.930;8.606;2023-05-10T08:11:52;99617.13;;;19.71;100.00
21956;BME280;11142;49.930;8.606;2023-05-10T08:14:19;99621.63;;;20.17;100.00
21956;BME280;11142;49.930;8.606;2023-05-10T08:16:47;99629.66;;;20.24;100.00
21956;BME280;11142;49.930;8.606;2023-05-10T08:19:15;99616.78;;;20.76;100.00
21956;BME280;11142;49.930;8.606;2023-05-10T08:21:47;99627.56;;;20.20;100.00
21956;BME280;11142;49.930;8.606;2023-05-10T08:24:14;99628.34;;;20.20;100.00
21956;BME280;11142;49.930;8.606;2023-05-10T08:26:42;99629.06;;;19.98;100.00
21956;BME280;11142;49.930;8.606;2023-05-10T08:29:10;99630.53;;;20.08;100.00
21956;BME280;11142;49.930;8.606;2023-05-10T08:31:38;99621.25;;;19.41;100.00
21956;BME280;11142;49.930;8.606;2023-05-10T08:34:06;99630.41;;;18.97;100.00
21956;BME280;11142;49.930;8.606;2023-05-10T08:36:34;99618.81;;;18.58;100.00
21956;BME280;11142;49.930;8.606;2023-05-10T08:39:03;99620.97;;;18.28;100.00
21956;BME280;11142;49.930;8.606;2023-05-10T08:41:45;99627.38;;;18.34;100.00
21956;BME280;11142;49.930;8.606;2023-05-10T08:44:14;99629.81;;;18.27;100.00
21956;BME280;11142;49.930;8.606;2023-05-10T08:46:43;99629.41;;;18.06;100.00
21956;BME280;11142;49.930;8.606;2023-05-10T08:49:13;99630.00;;;18.26;100.00
21956;BME280;11142;49.930;8.606;2023-05-10T08:51:44;99631.19;;;18.73;100.00
21956;BME280;11142;49.930;8.606;2023-05-10T08:54:15;99642.41;;;18.91;100.00
21956;BME280;11142;49.930;8.606;2023-05-10T08:56:43;99636.22;;;19.25;100.00
21956;BME280;11142;49.930;8.606;2023-05-10T08:59:13;99636.84;;;19.02;100.00
21956;BME280;11142;49.930;8.606;2023-05-10T09:01:43;99637.31;;;18.90;100.00
21956;BME280;11142;49.930;8.606;2023-05-10T09:04:12;99627.50;;;18.50;100.00
21956;BME280;11142;49.930;8.606;2023-05-10T09:06:40;99636.63;;;18.04;100.00
21956;BME280;11142;49.930;8.606;2023-05-10T09:09:08;99632.22;;;17.43;100.00
21956;BME280;11142;49.930;8.606;2023-05-10T09:11:37;99620.06;;;15.71;100.00
21956;BME280;11142;49.930;8.606;2023-05-10T09:14:05;99582.06;;;14.42;100.00
21956;BME280;11142;49.930;8.606;2023-05-10T09:16:33;99573.94;;;14.05;100.00
21956;BME280;11142;49.930;8.606;2023-05-10T09:19:01;99583.34;;;14.27;100.00
21956;BME280;11142;49.930;8.606;2023-05-10T09:21:29;99570.44;;;15.04;100.00
21956;BME280;11142;49.930;8.606;2023-05-10T09:23:57;99595.88;;;15.11;100.00
21956;BME280;11142;49.930;8.606;2023-05-10T09:26:30;99595.31;;;15.08;100.00
21956;BME280;11142;49.930;8.606;2023-05-10T09:28:59;99582.13;;;15.19;100.00
21956;BME280;11142;49.930;8.606;2023-05-10T09:31:45;99587.22;;;15.20;100.00
21956;BME280;11142;49.930;8.606;2023-05-10T09:34:16;99586.25;;;15.50;100.00
21956;BME280;11142;49.930;8.606;2023-05-10T09:36:52;99597.78;;;16.04;100.00
21956;BME280;11142;49.930;8.606;2023-05-10T09:39:20;99615.69;;;15.99;100.00
21956;BME280;11142;49.930;8.606;2023-05-10T09:41:48;99612.78;;;15.36;100.00
21956;BME280;11142;49.930;8.606;2023-05-10T09:44:17;99598.78;;;15.18;100.00
21956;BME280;11142;49.930;8.606;2023-05-10T09:46:50;99601.94;;;15.31;100.00
21956;BME280;11142;49.930;8.606;2023-05-10T09:49:19;99615.81;;;14.93;100.00
21956;BME280;11142;49.930;8.606;2023-05-10T09:51:47;99614.25;;;14.71;100.00
21956;BME280;11142;49.930;8.606;2023-05-10T09:54:15;99612.38;;;14.83;100.00
21956;BME280;11142;49.930;8.606;2023-05-10T09:56:43;99605.38;;;14.93;100.00
21956;BME280;11142;49.930;8.606;2023-05-10T09:59:11;99612.78;;;15.17;100.00
21956;BME280;11142;49.930;8.606;2023-05-10T10:01:41;99627.53;;;15.18;100.00
21956;BME280;11142;49.930;8.606;2023-05-10T10:04:09;99636.88;;;15.30;100.00
21956;BME280;11142;49.930;8.606;2023-05-10T10:06:37;99628.34;;;15.66;100.00
21956;BME280;11142;49.930;8.606;2023-05-10T10:09:05;99635.38;;;16.12;100.00
21956;BME280;11142;49.930;8.606;2023-05-10T10:11:34;99639.88;;;15.73;100.00
21956;BME280;11142;49.930;8.606;2023-05-10T10:14:02;99639.31;;;15.79;100.00
21956;BME280;11142;49.930;8.606;2023-05-10T10:16:30;99654.78;;;16.19;100.00
21956;BME280;11142;49.930;8.606;2023-05-10T10:18:59;99651.16;;;16.30;100.00
21956;BME280;11142;49.930;8.606;2023-05-10T10:21:28;99652.13;;;17.54;100.00
21956;BME280;11142;49.930;8.606;2023-05-10T10:23:57;99657.06;;;17.31;100.00
21956;BME280;11142;49.930;8.606;2023-05-10T10:26:25;99664.88;;;17.84;100.00
21956;BME280;11142;49.930;8.606;2023-05-10T10:28:56;99668.66;;;17.64;100.00
21956;BME280;11142;49.930;8.606;2023-05-10T10:31:30;99664.63;;;17.34;100.00
21956;BME280;11142;49.930;8.606;2023-05-10T10:34:03;99668.63;;;18.75;100.00
21956;BME280;11142;49.930;8.606;2023-05-10T10:36:39;99679.13;;;17.82;100.00
21956;BME280;11142;49.930;8.606;2023-05-10T10:39:08;99675.03;;;17.09;100.00
21956;BME280;11142;49.930;8.606;2023-05-10T10:41:37;99671.94;;;16.95;100.00
21956;BME280;11142;49.930;8.606;2023-05-10T10:44:26;99660.09;;;16.91;100.00
21956;BME280;11142;49.930;8.606;2023-05-10T10:49:49;99662.25;;;16.05;100.00
21956;BME280;11142;49.930;8.606;2023-05-10T10:52:23;99657.88;;;15.95;100.00
21956;BME280;11142;49.930;8.606;2023-05-10T10:54:53;99659.41;;;15.88;100.00
21956;BME280;11142;49.930;8.606;2023-05-10T10:57:25;99673.31;;;15.79;100.00
21956;BME280;11142;49.930;8.606;2023-05-10T11:00:17;99688.06;;;15.71;100.00
21956;BME280;11142;49.930;8.606;2023-05-10T11:02:46;99689.19;;;15.78;100.00
21956;BME280;11142;49.930;8.606;2023-05-10T11:05:33;99692.44;;;15.89;100.00
21956;BME280;11142;49.930;8.606;2023-05-10T11:08:06;99694.94;;;16.01;100.00
21956;BME280;11142;49.930;8.606;2023-05-10T11:10:34;99700.00;;;16.48;100.00
21956;BME280;11142;49.930;8.606;2023-05-10T11:13:03;99703.63;;;16.75;100.00
21956;BME280;11142;49.930;8.606;2023-05-10T11:15:32;99695.41;;;16.87;100.00
21956;BME280;11142;49.930;8.606;2023-05-10T11:18:15;99701.53;;;16.78;100.00
21956;BME280;11142;49.930;8.606;2023-05-10T11:20:46;99707.53;;;16.71;100.00
21956;BME280;11142;49.930;8.606;2023-05-10T11:23:17;99707.25;;;16.74;100.00
21956;BME280;11142;49.930;8.606;2023-05-10T11:25:47;99696.53;;;17.12;100.00
21956;BME280;11142;49.930;8.606;2023-05-10T11:28:16;99699.53;;;17.88;100.00
21956;BME280;11142;49.930;8.606;2023-05-10T11:30:45;99704.38;;;17.83;100.00
21956;BME280;11142;49.930;8.606;2023-05-10T11:33:16;99700.09;;;17.99;100.00
21956;BME280;11142;49.930;8.606;2023-05-10T11:35:45;99701.94;;;19.08;100.00
21956;BME280;11142;49.930;8.606;2023-05-10T11:38:13;99709.94;;;19.73;100.00
21956;BME280;11142;49.930;8.606;2023-05-10T11:40:41;99716.38;;;21.05;100.00
21956;BME280;11142;49.930;8.606;2023-05-10T11:43:09;99720.31;;;22.22;85.86
21956;BME280;11142;49.930;8.606;2023-05-10T11:45:39;99723.19;;;23.15;74.37
21956;BME280;11142;49.930;8.606;2023-05-10T11:48:07;99727.91;;;22.69;65.03
21956;BME280;11142;49.930;8.606;2023-05-10T11:50:37;99731.44;;;20.49;78.04
21956;BME280;11142;49.930;8.606;2023-05-10T11:53:06;99726.13;;;21.81;77.48
21956;BME280;11142;49.930;8.606;2023-05-10T11:55:34;99726.63;;;21.76;73.86
21956;BME280;11142;49.930;8.606;2023-05-10T11:58:02;99717.09;;;21.75;75.30
21956;BME280;11142;49.930;8.606;2023-05-10T12:00:30;99722.38;;;21.52;76.04
21956;BME280;11142;49.930;8.606;2023-05-10T12:02:58;99726.66;;;23.52;65.56
21956;BME280;11142;49.930;8.606;2023-05-10T12:05:26;99721.38;;;25.64;58.29
21956;BME280;11142;49.930;8.606;2023-05-10T12:10:38;99732.75;;;25.45;51.27
21956;BME280;11142;49.930;8.606;2023-05-10T12:13:10;99721.16;;;24.58;58.69
21956;BME280;11142;49.930;8.606;2023-05-10T12:15:38;99725.84;;;24.56;56.72
21956;BME280;11142;49.930;8.606;2023-05-10T12:18:07;99714.94;;;24.78;59.11
21956;BME280;11142;49.930;8.606;2023-05-10T12:20:36;99725.31;;;24.67;54.29
21956;BME280;11142;49.930;8.606;2023-05-10T12:23:05;99719.47;;;25.45;54.85
21956;BME280;11142;49.930;8.606;2023-05-10T12:25:35;99728.94;;;26.33;50.49
21956;BME280;11142;49.930;8.606;2023-05-10T12:28:05;99727.16;;;27.35;45.92
21956;BME280;11142;49.930;8.606;2023-05-10T12:30:34;99726.50;;;24.64;54.45
21956;BME280;11142;49.930;8.606;2023-05-10T12:33:06;99716.44;;;23.98;64.55
21956;BME280;11142;49.930;8.606;2023-05-10T12:35:43;99713.09;;;23.61;68.38
21956;BME280;11142;49.930;8.606;2023-05-10T12:38:27;99715.31;;;23.58;61.47
21956;BME280;11142;49.930;8.606;2023-05-10T12:40:56;99726.97;;;23.85;71.03
21956;BME280;11142;49.930;8.606;2023-05-10T12:43:26;99720.59;;;24.62;55.59
21956;BME280;11142;49.930;8.606;2023-05-10T12:45:53;99727.84;;;27.18;48.67
21956;BME280;11142;49.930;8.606;2023-05-10T12:48:21;99726.47;;;28.64;41.98
21956;BME280;11142;49.930;8.606;2023-05-10T12:50:49;99721.25;;;30.06;40.46
21956;BME280;11142;49.930;8.606;2023-05-10T12:53:17;99738.66;;;29.14;39.82
21956;BME280;11142;49.930;8.606;2023-05-10T12:55:45;99746.59;;;28.05;37.81
21956;BME280;11142;49.930;8.606;2023-05-10T12:58:13;99728.97;;;26.00;46.03
21956;BME280;11142;49.930;8.606;2023-05-10T13:01:01;99738.13;;;23.23;54.04
21956;BME280;11142;49.930;8.606;2023-05-10T13:03:29;99733.91;;;22.34;64.51
21956;BME280;11142;49.930;8.606;2023-05-10T13:05:57;99733.03;;;23.21;63.40
21956;BME280;11142;49.930;8.606;2023-05-10T13:08:25;99736.75;;;21.95;66.63